createdAt,value
2022-08-18T00:01:25.138Z,124.07
2022-08-18T00:03:56.254Z,118.60
2022-08-18T00:06:28.776Z,120.50
2022-08-18T00:08:56.366Z,125.20
2022-08-18T00:11:24.381Z,130.87
2022-08-18T00:13:50.974Z,135.00
2022-08-18T00:16:17.937Z,131.93
2022-08-18T00:18:44.538Z,137.50
2022-08-18T00:21:11.169Z,119.73
2022-08-18T00:23:38.854Z,110.50
2022-08-18T00:26:05.747Z,109.90
2022-08-18T00:28:32.398Z,109.60
2022-08-18T00:30:59.015Z,115.90
2022-08-18T00:33:25.654Z,113.93
2022-08-18T00:35:52.278Z,112.50
2022-08-18T00:38:24.306Z,123.37
2022-08-18T00:40:53.449Z,127.30
2022-08-18T00:43:23.271Z,130.57
2022-08-18T00:45:50.927Z,132.63
2022-08-18T00:48:17.616Z,138.93
2022-08-18T00:50:56.706Z,133.40
2022-08-18T00:53:44.083Z,131.87
2022-08-18T00:56:13.227Z,133.57
2022-08-18T00:58:42.447Z,137.73
2022-08-18T01:01:11.234Z,143.77
2022-08-18T01:03:40.012Z,153.83
2022-08-18T01:06:10.060Z,137.10
2022-08-18T01:08:38.720Z,133.97
2022-08-18T01:11:07.642Z,143.50
2022-08-18T01:13:35.257Z,134.90
2022-08-18T01:16:24.807Z,137.00
2022-08-18T01:19:10.086Z,136.37
2022-08-18T01:21:54.402Z,143.77
2022-08-18T01:24:43.426Z,137.40
2022-08-18T01:27:11.091Z,143.97
2022-08-18T01:29:41.552Z,140.10
2022-08-18T01:32:11.055Z,137.00
2022-08-18T01:34:38.105Z,139.93
2022-08-18T01:37:05.628Z,145.10
2022-08-18T01:41:21.106Z,145.90
2022-08-18T01:42:19.259Z,132.70
2022-08-18T01:44:47.851Z,136.63
2022-08-18T01:47:15.292Z,141.07
2022-08-18T01:49:44.842Z,146.70
2022-08-18T01:52:15.924Z,141.43
2022-08-18T01:54:42.908Z,148.80
2022-08-18T01:57:13.622Z,157.70
2022-08-18T01:59:40.938Z,156.83
2022-08-18T02:02:07.690Z,162.57
2022-08-18T02:04:39.368Z,167.90
2022-08-18T02:07:07.749Z,158.93
2022-08-18T02:09:37.403Z,163.93
2022-08-18T02:12:05.807Z,161.30
2022-08-18T02:14:32.910Z,161.03
2022-08-18T02:17:02.805Z,162.20
2022-08-18T02:19:33.525Z,166.60
2022-08-18T02:22:00.359Z,164.03
2022-08-18T02:24:26.965Z,167.07
2022-08-18T02:26:53.773Z,161.53
2022-08-18T02:29:20.310Z,164.17
2022-08-18T02:31:46.870Z,166.13
2022-08-18T02:34:13.487Z,214.93
2022-08-18T02:36:41.124Z,247.40
2022-08-18T02:39:07.715Z,212.97
2022-08-18T02:41:34.318Z,189.13
2022-08-18T02:44:00.981Z,216.07
2022-08-18T02:46:31.308Z,218.83
2022-08-18T02:48:59.488Z,211.10
2022-08-18T02:51:26.353Z,163.83
2022-08-18T02:53:53.689Z,155.70
2022-08-18T02:56:32.820Z,161.10
2022-08-18T02:59:14.128Z,170.50
2022-08-18T03:01:42.488Z,174.53
2022-08-18T03:04:10.269Z,172.40
2022-08-18T03:06:38.009Z,176.03
2022-08-18T03:09:10.264Z,165.07
2022-08-18T03:11:37.421Z,183.30
2022-08-18T03:14:11.265Z,166.07
2022-08-18T03:16:40.461Z,171.60
2022-08-18T03:19:20.177Z,166.17
2022-08-18T03:21:47.414Z,167.47
2022-08-18T03:24:22.210Z,172.40
2022-08-18T03:26:49.877Z,172.87
2022-08-18T03:29:16.730Z,172.37
2022-08-18T03:31:44.563Z,163.50
2022-08-18T03:34:11.841Z,169.43
2022-08-18T03:36:38.510Z,159.20
2022-08-18T03:39:07.026Z,171.57
2022-08-18T03:41:57.028Z,171.60
2022-08-18T03:44:21.036Z,164.43
2022-08-18T03:46:48.345Z,171.00
2022-08-18T03:49:16.974Z,177.40
2022-08-18T03:51:46.574Z,168.40
2022-08-18T03:54:13.848Z,175.77
2022-08-18T03:56:41.969Z,182.63
2022-08-18T03:59:11.053Z,172.40
2022-08-18T04:01:41.691Z,188.10
2022-08-18T04:04:13.747Z,184.03
2022-08-18T04:06:45.243Z,184.83
2022-08-18T04:09:13.117Z,167.80
2022-08-18T04:11:43.219Z,156.90
2022-08-18T04:14:15.162Z,150.67
2022-08-18T04:16:44.527Z,152.40
2022-08-18T04:19:13.553Z,147.93
2022-08-18T04:21:41.881Z,142.63
2022-08-18T04:24:09.169Z,146.40
2022-08-18T04:26:37.611Z,138.47
2022-08-18T04:29:05.354Z,131.57
2022-08-18T04:31:32.432Z,129.00
2022-08-18T04:33:59.970Z,135.53
2022-08-18T04:36:27.345Z,133.87
2022-08-18T04:38:54.251Z,127.80
2022-08-18T04:41:27.257Z,139.80
2022-08-18T04:43:55.056Z,132.33
2022-08-18T04:46:24.220Z,136.03
2022-08-18T04:48:52.245Z,135.13
2022-08-18T04:52:34.090Z,132.77
2022-08-18T04:54:06.823Z,131.37
2022-08-18T04:56:36.291Z,131.60
2022-08-18T04:59:10.637Z,128.47
2022-08-18T05:01:45.578Z,121.60
2022-08-18T05:04:13.616Z,122.63
2022-08-18T05:06:40.740Z,119.57
2022-08-18T05:09:08.892Z,115.67
2022-08-18T05:11:36.543Z,113.10
2022-08-18T05:14:06.229Z,105.47
2022-08-18T05:16:36.209Z,111.60
2022-08-18T05:19:15.538Z,103.93
2022-08-18T05:21:45.942Z,101.70
2022-08-18T05:24:17.488Z,101.93
2022-08-18T05:26:45.845Z,104.10
2022-08-18T05:29:18.666Z,98.20
2022-08-18T05:31:46.740Z,97.63
2022-08-18T05:34:13.403Z,96.83
2022-08-18T05:36:43.577Z,97.00
2022-08-18T05:39:13.217Z,95.80
2022-08-18T05:41:44.781Z,99.43
2022-08-18T05:44:13.551Z,95.20
2022-08-18T05:46:50.343Z,88.37
2022-08-18T05:49:18.050Z,94.97
2022-08-18T05:51:49.325Z,89.17
2022-08-18T05:54:35.166Z,88.47
2022-08-18T05:57:05.030Z,90.70
2022-08-18T05:59:32.599Z,89.97
2022-08-18T06:02:02.323Z,92.03
2022-08-18T06:04:29.689Z,88.60
2022-08-18T06:06:57.918Z,92.67
2022-08-18T06:09:28.233Z,85.40
2022-08-18T06:11:58.914Z,94.87
2022-08-18T06:14:25.844Z,94.67
2022-08-18T06:16:58.809Z,85.43
2022-08-18T06:19:45.720Z,97.00
2022-08-18T06:22:21.760Z,96.83
2022-08-18T06:24:54.475Z,93.40
2022-08-18T06:27:27.969Z,89.53
2022-08-18T06:30:07.036Z,90.17
2022-08-18T06:32:53.915Z,82.93
2022-08-18T06:35:35.671Z,77.27
2022-08-18T06:38:23.221Z,83.87
2022-08-18T06:40:50.248Z,72.43
2022-08-18T06:43:17.435Z,79.70
2022-08-18T06:45:51.281Z,76.93
2022-08-18T06:48:24.413Z,75.90
2022-08-18T06:50:55.993Z,72.93
2022-08-18T06:53:26.922Z,71.43
2022-08-18T06:55:54.576Z,70.20
2022-08-18T06:58:22.674Z,74.10
2022-08-18T07:00:55.932Z,75.83
2022-08-18T07:03:24.877Z,74.57
2022-08-18T07:06:02.630Z,69.97
2022-08-18T07:08:35.726Z,69.90
2022-08-18T07:11:21.217Z,71.70
2022-08-18T07:13:58.621Z,72.40
2022-08-18T07:16:57.140Z,55.73
2022-08-18T07:19:27.999Z,70.60
2022-08-18T07:22:06.577Z,66.57
2022-08-18T07:24:40.377Z,62.97
2022-08-18T07:27:07.351Z,66.60
2022-08-18T07:29:35.842Z,66.80
2022-08-18T07:32:13.997Z,65.80
2022-08-18T07:34:53.319Z,65.37
2022-08-18T07:37:25.078Z,62.30
2022-08-18T07:40:10.099Z,61.40
2022-08-18T07:43:01.501Z,60.90
2022-08-18T07:45:29.506Z,63.87
2022-08-18T07:48:15.685Z,59.40
2022-08-18T07:51:06.703Z,58.47
2022-08-18T07:53:36.897Z,58.73
2022-08-18T07:56:11.430Z,60.77
2022-08-18T07:58:44.035Z,60.53
2022-08-18T08:01:29.374Z,58.90
2022-08-18T08:04:09.298Z,59.23
2022-08-18T08:06:41.020Z,58.23
2022-08-18T08:09:25.963Z,61.97
2022-08-18T08:11:53.045Z,64.33
2022-08-18T08:14:24.233Z,55.50
2022-08-18T08:17:07.303Z,57.00
2022-08-18T08:19:59.973Z,60.70
2022-08-18T08:22:37.261Z,56.77
2022-08-18T08:25:42.728Z,57.77
2022-08-18T08:28:09.562Z,55.77
2022-08-18T08:30:42.194Z,57.30
2022-08-18T08:33:27.937Z,58.47
2022-08-18T08:35:54.903Z,61.90
2022-08-18T08:38:42.355Z,58.00
2022-08-18T08:41:15.881Z,57.10
2022-08-18T08:43:45.432Z,56.67
2022-08-18T08:46:11.982Z,56.77
2022-08-18T08:48:44.158Z,55.47
2022-08-18T08:51:23.453Z,55.60
2022-08-18T08:53:56.448Z,56.00
2022-08-18T08:56:29.334Z,54.43
2022-08-18T08:59:03.287Z,54.60
2022-08-18T09:01:48.059Z,51.27
2022-08-18T09:04:33.506Z,54.47
2022-08-18T09:07:00.831Z,52.10
2022-08-18T09:09:39.498Z,51.03
2022-08-18T09:12:06.206Z,47.93
2022-08-18T09:14:51.713Z,49.37
2022-08-18T09:17:38.668Z,49.17
2022-08-18T09:20:08.377Z,47.17
2022-08-18T09:22:40.436Z,46.60
2022-08-18T09:25:11.638Z,39.93
2022-08-18T09:28:09.787Z,45.70
2022-08-18T09:30:37.360Z,42.80
2022-08-18T09:33:18.758Z,43.00
2022-08-18T09:35:55.209Z,43.53
2022-08-18T09:38:46.556Z,40.33
2022-08-18T09:41:34.246Z,35.70
2022-08-18T09:46:59.328Z,31.83
2022-08-18T09:49:26.541Z,31.53
2022-08-18T09:51:54.931Z,30.67
2022-08-18T09:54:32.864Z,30.43
2022-08-18T09:57:19.236Z,36.20
2022-08-18T09:59:50.421Z,38.57
2022-08-18T10:02:28.288Z,40.60
2022-08-18T10:05:14.229Z,34.37
2022-08-18T10:08:03.468Z,33.40
2022-08-18T10:11:01.480Z,35.90
2022-08-18T10:13:25.220Z,34.87
2022-08-18T10:16:11.379Z,35.07
2022-08-18T10:18:38.073Z,33.50
2022-08-18T10:24:32.245Z,30.30
2022-08-18T10:26:55.390Z,32.20
2022-08-18T10:29:28.606Z,34.03
2022-08-18T10:31:59.112Z,31.63
2022-08-18T10:34:52.315Z,33.03
2022-08-18T10:37:31.918Z,25.00
2022-08-18T10:40:13.742Z,22.97
2022-08-18T10:46:05.913Z,28.27
2022-08-18T10:48:34.776Z,25.13
2022-08-18T10:51:21.755Z,22.57
2022-08-18T10:54:01.107Z,24.50
2022-08-18T10:56:28.653Z,22.20
2022-08-18T10:59:01.471Z,23.37
2022-08-18T11:01:35.547Z,22.60
2022-08-18T11:06:54.168Z,21.67
2022-08-18T11:09:26.641Z,21.20
2022-08-18T11:11:59.223Z,21.00
2022-08-18T11:14:31.505Z,18.90
2022-08-18T11:17:08.878Z,17.10
2022-08-18T11:19:42.082Z,15.80
2022-08-18T11:22:31.577Z,15.70
2022-08-18T11:25:00.259Z,14.17
2022-08-18T11:27:34.129Z,12.20
2022-08-18T11:30:02.098Z,14.30
2022-08-18T11:32:34.780Z,13.20
2022-08-18T11:35:06.025Z,14.03
2022-08-18T11:37:54.037Z,12.80
2022-08-18T11:43:21.559Z,9.63
2022-08-18T11:45:52.731Z,10.63
2022-08-18T11:48:25.081Z,9.60
2022-08-18T11:50:56.507Z,11.40
2022-08-18T11:53:26.926Z,9.67
2022-08-18T11:56:14.361Z,9.63
2022-08-18T11:58:46.105Z,10.70
2022-08-18T12:01:34.917Z,8.40
2022-08-18T12:07:20.611Z,8.30
2022-08-18T12:12:44.404Z,8.30
2022-08-18T12:15:17.605Z,7.57
2022-08-18T12:20:38.037Z,10.70
2022-08-18T12:23:05.505Z,9.57
2022-08-18T12:25:32.571Z,10.07
2022-08-18T12:27:59.385Z,8.73
2022-08-18T12:30:26.320Z,8.97
2022-08-18T12:33:00.795Z,9.67
2022-08-18T12:35:33.467Z,8.83
2022-08-18T12:38:05.050Z,9.77
2022-08-18T12:40:41.627Z,9.37
2022-08-18T12:43:09.072Z,9.47
2022-08-18T12:45:37.937Z,9.93
2022-08-18T12:48:05.065Z,9.50
2022-08-18T12:50:39.118Z,8.60
2022-08-18T12:53:10.546Z,8.57
2022-08-18T12:56:00.904Z,8.27
2022-08-18T12:58:38.848Z,8.90
2022-08-18T13:01:07.370Z,9.90
2022-08-18T13:03:36.993Z,8.80
2022-08-18T13:06:04.577Z,9.07
2022-08-18T13:08:38.252Z,7.33
2022-08-18T13:11:23.566Z,9.40
2022-08-18T13:13:56.805Z,7.13
2022-08-18T13:16:38.943Z,7.87
2022-08-18T13:19:17.135Z,6.20
2022-08-18T13:21:43.945Z,6.67
2022-08-18T13:24:13.204Z,5.60
2022-08-18T13:26:45.894Z,6.90
2022-08-18T13:29:14.164Z,7.60
2022-08-18T13:31:41.157Z,6.50
2022-08-18T13:34:19.296Z,6.53
2022-08-18T13:36:48.277Z,7.20
2022-08-18T13:39:16.847Z,6.20
2022-08-18T13:41:48.068Z,6.47
2022-08-18T13:44:18.543Z,4.83
2022-08-18T13:46:47.454Z,5.90
2022-08-18T13:49:15.727Z,6.07
2022-08-18T13:51:46.305Z,5.50
2022-08-18T13:54:30.827Z,4.40
2022-08-18T13:57:00.467Z,6.07
2022-08-18T13:59:34.266Z,5.97
2022-08-18T14:02:03.105Z,5.77
2022-08-18T14:04:30.227Z,6.47
2022-08-18T14:07:00.506Z,6.43
2022-08-18T14:09:37.614Z,7.50
2022-08-18T14:12:07.237Z,6.13
2022-08-18T14:14:43.050Z,6.33
2022-08-18T14:17:09.825Z,5.90
2022-08-18T14:19:56.199Z,6.13
2022-08-18T14:22:42.741Z,5.93
2022-08-18T14:25:28.310Z,5.50
2022-08-18T14:27:56.516Z,5.33
2022-08-18T14:30:24.362Z,5.30
2022-08-18T14:32:53.486Z,5.40
2022-08-18T14:35:33.654Z,5.67
2022-08-18T14:38:21.411Z,6.50
2022-08-18T14:40:53.426Z,5.30
2022-08-18T14:43:25.067Z,5.57
2022-08-18T14:45:58.152Z,5.60
2022-08-18T14:48:27.244Z,4.83
2022-08-18T14:50:55.454Z,6.33
2022-08-18T14:53:24.367Z,6.17
2022-08-18T14:55:53.331Z,4.63
2022-08-18T14:58:35.021Z,7.00
2022-08-18T15:01:11.034Z,5.80
2022-08-18T15:03:39.071Z,5.93
2022-08-18T15:06:07.207Z,5.73
2022-08-18T15:08:35.833Z,6.23
2022-08-18T15:11:06.196Z,5.10
2022-08-18T15:13:39.795Z,6.83
2022-08-18T15:16:13.050Z,5.80
2022-08-18T15:18:40.944Z,6.03
2022-08-18T15:21:38.486Z,5.43
2022-08-18T15:24:25.790Z,5.70
2022-08-18T15:26:57.408Z,5.30
2022-08-18T15:29:27.993Z,5.73
2022-08-18T15:32:01.993Z,5.90
2022-08-18T15:34:32.450Z,5.00
2022-08-18T15:37:09.763Z,7.10
2022-08-18T15:39:37.142Z,6.20
2022-08-18T15:42:09.659Z,5.93
2022-08-18T15:44:36.926Z,4.57
2022-08-18T15:47:05.996Z,4.77
2022-08-18T15:49:38.939Z,6.17
2022-08-18T15:52:06.977Z,4.97
2022-08-18T15:54:42.312Z,4.07
2022-08-18T15:57:39.655Z,4.60
2022-08-18T16:00:02.143Z,5.73
2022-08-18T16:02:39.188Z,5.60
2022-08-18T16:05:10.495Z,5.67
2022-08-18T16:07:41.135Z,6.10
2022-08-18T16:10:08.976Z,6.23
2022-08-18T16:12:36.000Z,5.70
2022-08-18T16:15:07.491Z,6.20
2022-08-18T16:17:34.757Z,6.67
2022-08-18T16:20:01.982Z,5.40
2022-08-18T16:22:29.218Z,6.90
2022-08-18T16:24:57.102Z,6.47
2022-08-18T16:27:24.152Z,6.50
2022-08-18T16:29:51.231Z,6.63
2022-08-18T16:32:26.260Z,6.40
2022-08-18T16:38:05.667Z,6.85
2022-08-18T16:44:45.802Z,6.60
2022-08-18T16:47:18.507Z,6.37
2022-08-18T16:49:58.629Z,6.43
2022-08-18T16:52:27.343Z,6.70
2022-08-18T16:54:58.045Z,6.80
2022-08-18T16:57:53.381Z,6.77
2022-08-18T17:00:41.608Z,7.73
2022-08-18T17:03:27.823Z,7.87
2022-08-18T17:06:03.864Z,7.53
2022-08-18T17:08:34.270Z,8.57
2022-08-18T17:11:02.461Z,8.43
2022-08-18T17:13:29.861Z,8.37
2022-08-18T17:15:56.967Z,8.40
2022-08-18T17:18:27.659Z,8.93
2022-08-18T17:20:55.511Z,9.40
2022-08-18T17:23:23.058Z,9.70
2022-08-18T17:25:51.324Z,10.23
2022-08-18T17:28:22.358Z,9.30
2022-08-18T17:30:53.759Z,9.50
2022-08-18T17:33:28.643Z,9.33
2022-08-18T17:35:57.573Z,10.07
2022-08-18T17:38:34.242Z,10.40
2022-08-18T17:41:01.802Z,11.30
2022-08-18T17:43:33.373Z,9.80
2022-08-18T17:46:08.814Z,9.97
2022-08-18T17:48:41.175Z,10.50
2022-08-18T17:51:42.503Z,9.57
2022-08-18T17:54:14.701Z,9.30
2022-08-18T17:57:05.752Z,9.43
2022-08-18T17:59:45.851Z,8.90
2022-08-18T18:02:28.901Z,8.10
2022-08-18T18:05:04.501Z,8.50
2022-08-18T18:07:34.026Z,8.33
2022-08-18T18:10:09.556Z,8.03
2022-08-18T18:12:40.134Z,9.10
2022-08-18T18:15:10.425Z,7.40
2022-08-18T18:17:38.738Z,7.30
2022-08-18T18:20:24.574Z,8.00
2022-08-18T18:22:52.274Z,8.27
2022-08-18T18:25:34.769Z,8.50
2022-08-18T18:28:02.134Z,10.03
2022-08-18T18:30:32.833Z,9.63
2022-08-18T18:33:02.858Z,8.47
2022-08-18T18:35:54.896Z,8.53
2022-08-18T18:38:35.245Z,8.10
2022-08-18T18:41:02.143Z,10.37
2022-08-18T18:43:39.742Z,11.40
2022-08-18T18:46:06.510Z,10.17
2022-08-18T18:48:52.759Z,8.63
2022-08-18T18:51:33.581Z,9.13
2022-08-18T18:54:06.376Z,8.83
2022-08-18T18:56:41.093Z,11.10
2022-08-18T18:59:27.208Z,9.60
2022-08-18T19:02:33.593Z,9.77
2022-08-18T19:05:16.670Z,10.47
2022-08-18T19:08:16.107Z,11.03
2022-08-18T19:10:49.544Z,9.93
2022-08-18T19:13:32.529Z,11.10
2022-08-18T19:16:05.429Z,12.50
2022-08-18T19:18:38.590Z,12.20
2022-08-18T19:21:45.963Z,12.43
2022-08-18T19:23:59.987Z,13.50
2022-08-18T19:26:29.530Z,13.90
2022-08-18T19:29:13.868Z,15.90
2022-08-18T19:31:45.023Z,16.13
2022-08-18T19:34:17.936Z,14.70
2022-08-18T19:36:56.377Z,15.50
2022-08-18T19:39:27.502Z,13.70
2022-08-18T19:42:04.672Z,13.83
2022-08-18T19:45:13.403Z,14.03
2022-08-18T19:47:57.658Z,13.80
2022-08-18T19:50:41.710Z,14.87
2022-08-18T19:53:21.413Z,15.70
2022-08-18T19:56:37.998Z,15.30
2022-08-18T20:06:34.727Z,17.10
2022-08-18T20:13:11.309Z,14.63
2022-08-18T20:16:44.693Z,14.17
2022-08-18T20:19:34.457Z,21.00
2022-08-18T20:22:15.968Z,21.27
2022-08-18T20:25:07.985Z,20.50
2022-08-18T20:28:01.389Z,21.27
2022-08-18T20:34:14.591Z,21.13
2022-08-18T20:40:50.902Z,21.73
2022-08-18T20:43:36.192Z,17.30
2022-08-18T20:46:12.172Z,18.87
2022-08-18T20:48:48.021Z,18.37
2022-08-18T20:51:19.093Z,16.70
2022-08-18T20:53:49.889Z,17.90
2022-08-18T20:56:31.439Z,19.70
2022-08-18T20:59:29.076Z,19.47
2022-08-18T21:02:00.987Z,20.10
2022-08-18T21:04:41.190Z,19.40
2022-08-18T21:07:36.151Z,18.50
2022-08-18T21:10:21.474Z,22.80
2022-08-18T21:12:55.161Z,23.20
2022-08-18T21:15:24.413Z,23.83
2022-08-18T21:18:18.077Z,23.57
2022-08-18T21:20:47.027Z,22.70
2022-08-18T21:23:14.190Z,24.03
2022-08-18T21:25:48.223Z,22.83
2022-08-18T21:28:15.389Z,22.13
2022-08-18T21:30:53.932Z,20.00
2022-08-18T21:33:21.081Z,21.33
2022-08-18T21:35:48.377Z,23.67
2022-08-18T21:38:15.279Z,22.20
2022-08-18T21:40:48.608Z,21.63
2022-08-18T21:43:33.212Z,21.50
2022-08-18T21:46:00.396Z,20.93
2022-08-18T21:48:27.699Z,20.40
2022-08-18T21:50:58.320Z,21.97
2022-08-18T21:53:30.050Z,24.23
2022-08-18T21:55:58.790Z,25.70
2022-08-18T21:58:32.774Z,23.93
2022-08-18T22:01:10.169Z,22.07
2022-08-18T22:03:59.258Z,23.90
2022-08-18T22:06:25.883Z,23.93
2022-08-18T22:08:58.279Z,25.80
2022-08-18T22:12:01.718Z,24.20
2022-08-18T22:14:35.759Z,22.63
2022-08-18T22:17:43.147Z,21.77
2022-08-18T22:20:28.775Z,23.50
2022-08-18T22:23:18.156Z,23.67
2022-08-18T22:25:44.790Z,22.37
2022-08-18T22:28:12.008Z,24.53
2022-08-18T22:30:38.676Z,26.30
2022-08-18T22:33:05.878Z,25.93
2022-08-18T22:35:33.143Z,23.93
2022-08-18T22:38:01.340Z,25.27
2022-08-18T22:40:31.299Z,26.70
2022-08-18T22:42:58.756Z,29.13
2022-08-18T22:45:25.585Z,29.83
2022-08-18T22:47:52.301Z,27.27
2022-08-18T22:50:19.390Z,27.90
2022-08-18T22:52:48.274Z,30.30
2022-08-18T22:55:18.319Z,29.03
2022-08-18T22:57:51.381Z,27.90
2022-08-18T23:00:23.471Z,31.30
2022-08-18T23:02:52.358Z,32.30
2022-08-18T23:05:19.292Z,29.73
2022-08-18T23:07:49.699Z,33.17
2022-08-18T23:10:16.781Z,32.50
2022-08-18T23:12:44.587Z,31.13
2022-08-18T23:15:14.332Z,34.10
2022-08-18T23:17:41.919Z,33.60
2022-08-18T23:20:11.702Z,33.23
2022-08-18T23:22:39.103Z,32.13
2022-08-18T23:25:08.810Z,30.53
2022-08-18T23:27:36.722Z,30.97
2022-08-18T23:30:04.391Z,33.67
2022-08-18T23:32:32.185Z,34.00
2022-08-18T23:35:00.936Z,33.93
2022-08-18T23:37:27.599Z,34.33
2022-08-18T23:39:55.818Z,36.03
2022-08-18T23:42:23.166Z,35.27
2022-08-18T23:44:50.194Z,34.77
2022-08-18T23:47:19.771Z,35.17
2022-08-18T23:49:46.732Z,35.90
2022-08-18T23:52:13.423Z,38.13
2022-08-18T23:54:40.129Z,37.17
2022-08-18T23:57:06.815Z,35.17
2022-08-18T23:59:34.482Z,38.80
